createdAt,value
2022-10-19T00:01:44.785Z,5.00
2022-10-19T00:04:11.631Z,4.73
2022-10-19T00:06:38.546Z,5.28
2022-10-19T00:09:14.160Z,5.20
2022-10-19T00:11:44.036Z,5.45
2022-10-19T00:14:28.873Z,5.80
2022-10-19T00:16:56.290Z,6.70
2022-10-19T00:19:26.095Z,5.47
2022-10-19T00:21:53.139Z,5.50
2022-10-19T00:24:20.099Z,5.57
2022-10-19T00:26:47.295Z,6.00
2022-10-19T00:29:15.187Z,6.20
2022-10-19T00:31:42.394Z,6.00
2022-10-19T00:34:09.812Z,5.63
2022-10-19T00:36:39.767Z,5.97
2022-10-19T00:39:10.198Z,6.78
2022-10-19T00:41:37.964Z,6.60
2022-10-19T00:44:26.887Z,7.20
2022-10-19T00:46:54.200Z,9.10
2022-10-19T00:49:24.822Z,8.57
2022-10-19T00:51:54.829Z,7.53
2022-10-19T00:54:22.467Z,7.70
2022-10-19T00:56:51.880Z,7.50
2022-10-19T00:59:21.356Z,8.15
2022-10-19T01:01:50.027Z,7.70
2022-10-19T01:04:18.340Z,9.10
2022-10-19T01:06:45.319Z,9.73
2022-10-19T01:09:12.281Z,8.88
2022-10-19T01:11:45.098Z,7.45
2022-10-19T01:14:21.038Z,7.25
2022-10-19T01:16:55.626Z,7.72
2022-10-19T01:20:16.736Z,7.83
2022-10-19T01:22:55.511Z,7.88
2022-10-19T01:25:53.956Z,8.63
2022-10-19T01:28:29.769Z,8.10
2022-10-19T01:31:15.344Z,7.57
2022-10-19T01:34:12.128Z,7.43
2022-10-19T01:36:48.620Z,7.50
2022-10-19T01:39:38.178Z,7.43
2022-10-19T01:42:28.638Z,6.82
2022-10-19T01:45:06.948Z,7.18
2022-10-19T01:48:06.846Z,6.70
2022-10-19T01:51:02.185Z,6.50
2022-10-19T01:53:33.043Z,6.55
2022-10-19T01:56:01.875Z,6.15
2022-10-19T01:58:33.638Z,7.20
2022-10-19T02:01:04.732Z,6.90
2022-10-19T02:03:33.634Z,6.28
2022-10-19T02:06:02.653Z,6.10
2022-10-19T02:08:35.084Z,6.20
2022-10-19T02:11:02.917Z,6.40
2022-10-19T02:13:30.665Z,5.93
2022-10-19T02:16:01.467Z,5.50
2022-10-19T02:18:37.755Z,5.80
2022-10-19T02:21:06.208Z,6.30
2022-10-19T02:23:34.079Z,6.03
2022-10-19T02:26:01.016Z,5.83
2022-10-19T02:28:28.916Z,5.95
2022-10-19T02:30:56.407Z,6.20
2022-10-19T02:33:23.486Z,5.90
2022-10-19T02:35:50.543Z,5.95
2022-10-19T02:38:21.424Z,5.57
2022-10-19T02:40:57.670Z,5.75
2022-10-19T02:43:26.799Z,5.32
2022-10-19T02:46:02.351Z,5.63
2022-10-19T02:48:32.041Z,6.05
2022-10-19T02:50:58.832Z,5.57
2022-10-19T02:53:25.547Z,5.47
2022-10-19T02:55:52.578Z,5.40
2022-10-19T02:58:21.993Z,5.53
2022-10-19T03:00:48.809Z,5.35
2022-10-19T03:03:15.645Z,4.90
2022-10-19T03:05:42.453Z,4.82
2022-10-19T03:08:09.317Z,5.00
2022-10-19T03:10:36.270Z,4.80
2022-10-19T03:13:03.093Z,4.57
2022-10-19T03:15:30.005Z,4.50
2022-10-19T03:17:57.226Z,4.90
2022-10-19T03:20:24.206Z,4.65
2022-10-19T03:25:18.334Z,4.95
2022-10-19T03:27:45.166Z,4.60
2022-10-19T03:30:12.080Z,3.95
2022-10-19T03:32:38.950Z,4.40
2022-10-19T03:35:06.329Z,4.38
2022-10-19T03:37:33.454Z,4.45
2022-10-19T03:40:00.618Z,4.20
2022-10-19T03:42:27.446Z,4.07
2022-10-19T03:44:54.176Z,4.30
2022-10-19T03:47:20.951Z,4.25
2022-10-19T03:49:50.202Z,4.70
2022-10-19T03:52:21.101Z,3.90
2022-10-19T03:54:50.864Z,4.15
2022-10-19T03:57:17.612Z,4.10
2022-10-19T03:59:44.398Z,3.90
2022-10-19T04:02:11.212Z,4.43
2022-10-19T04:04:38.097Z,3.63
2022-10-19T04:07:04.910Z,3.70
2022-10-19T04:09:31.619Z,3.80
2022-10-19T04:11:58.410Z,4.00
2022-10-19T04:14:32.622Z,3.88
2022-10-19T04:17:01.645Z,4.00
2022-10-19T04:19:28.513Z,3.88
2022-10-19T04:21:55.406Z,4.07
2022-10-19T04:24:22.288Z,3.90
2022-10-19T04:26:54.189Z,4.00
2022-10-19T04:29:25.105Z,3.77
2022-10-19T04:31:54.834Z,3.40
2022-10-19T04:34:22.053Z,3.90
2022-10-19T04:36:48.844Z,3.70
2022-10-19T04:39:15.599Z,3.90
2022-10-19T04:41:42.412Z,3.90
2022-10-19T04:44:10.013Z,3.78
2022-10-19T04:46:38.262Z,3.67
2022-10-19T04:49:06.727Z,4.30
2022-10-19T04:51:34.458Z,3.90
2022-10-19T04:54:03.764Z,4.20
2022-10-19T04:56:32.305Z,4.10
2022-10-19T04:59:00.428Z,4.00
2022-10-19T05:01:29.154Z,3.85
2022-10-19T05:03:58.654Z,4.07
2022-10-19T05:06:26.458Z,3.90
2022-10-19T05:08:53.644Z,4.50
2022-10-19T05:11:20.825Z,4.00
2022-10-19T05:13:48.127Z,3.90
2022-10-19T05:16:18.985Z,4.07
2022-10-19T05:18:56.118Z,4.00
2022-10-19T05:21:24.054Z,3.90
2022-10-19T05:23:52.811Z,4.00
2022-10-19T05:26:21.905Z,3.70
2022-10-19T05:28:50.469Z,4.18
2022-10-19T05:31:20.186Z,3.87
2022-10-19T05:33:47.571Z,3.80
2022-10-19T05:36:17.279Z,3.60
2022-10-19T05:38:45.701Z,3.95
2022-10-19T05:41:13.329Z,5.65
2022-10-19T05:43:41.920Z,5.40
2022-10-19T05:46:19.100Z,4.95
2022-10-19T05:48:46.686Z,6.07
2022-10-19T05:51:16.195Z,5.20
2022-10-19T05:53:43.757Z,5.95
2022-10-19T05:56:18.110Z,5.67
2022-10-19T05:58:45.306Z,6.28
2022-10-19T06:01:12.705Z,6.68
2022-10-19T06:03:39.874Z,5.68
2022-10-19T06:06:08.668Z,5.28
2022-10-19T06:08:36.249Z,4.80
2022-10-19T06:11:14.300Z,4.28
2022-10-19T06:13:42.710Z,4.07
2022-10-19T06:16:10.761Z,4.00
2022-10-19T06:18:38.049Z,4.00
2022-10-19T06:21:12.049Z,4.03
2022-10-19T06:23:39.608Z,3.78
2022-10-19T06:26:12.313Z,4.00
2022-10-19T06:28:40.477Z,4.90
2022-10-19T06:31:09.195Z,4.82
2022-10-19T06:33:36.807Z,4.73
2022-10-19T06:36:16.437Z,4.57
2022-10-19T06:38:43.926Z,4.30
2022-10-19T06:41:11.698Z,3.97
2022-10-19T06:43:38.793Z,4.38
2022-10-19T06:46:07.405Z,4.33
2022-10-19T06:48:34.688Z,4.22
2022-10-19T06:51:06.217Z,4.20
2022-10-19T06:53:34.411Z,4.28
2022-10-19T06:56:04.073Z,3.80
2022-10-19T06:58:31.258Z,3.67
2022-10-19T07:00:59.583Z,3.30
2022-10-19T07:03:27.492Z,3.28
2022-10-19T07:05:59.794Z,3.30
2022-10-19T07:08:28.607Z,3.80
2022-10-19T07:10:58.802Z,3.40
2022-10-19T07:13:26.760Z,3.28
2022-10-19T07:16:02.853Z,3.30
2022-10-19T07:18:29.782Z,3.10
2022-10-19T07:20:58.494Z,3.17
2022-10-19T07:23:27.010Z,3.13
2022-10-19T07:25:55.489Z,2.97
2022-10-19T07:28:22.593Z,3.10
2022-10-19T07:30:49.428Z,2.90
2022-10-19T07:35:47.991Z,2.90
2022-10-19T07:38:14.688Z,2.90
2022-10-19T07:40:44.853Z,3.17
2022-10-19T07:43:14.119Z,3.10
2022-10-19T07:45:40.962Z,3.20
2022-10-19T07:48:08.333Z,3.10
2022-10-19T07:50:35.093Z,3.10
2022-10-19T07:53:05.212Z,3.00
2022-10-19T07:55:34.290Z,2.83
2022-10-19T07:58:02.043Z,3.60
2022-10-19T08:00:29.681Z,2.97
2022-10-19T08:03:23.069Z,3.17
2022-10-19T08:05:43.565Z,2.88
2022-10-19T08:08:10.639Z,2.95
2022-10-19T08:10:37.489Z,2.78
2022-10-19T08:13:04.248Z,3.13
2022-10-19T08:15:31.086Z,3.40
2022-10-19T08:17:57.963Z,3.00
2022-10-19T08:20:24.710Z,2.70
2022-10-19T08:22:56.372Z,2.60
2022-10-19T08:25:25.798Z,2.43
2022-10-19T08:27:52.591Z,2.13
2022-10-19T08:30:19.730Z,2.30
2022-10-19T08:32:46.511Z,2.72
2022-10-19T08:35:13.339Z,2.28
2022-10-19T08:37:44.690Z,2.07
2022-10-19T08:40:23.962Z,2.30
2022-10-19T08:43:02.494Z,2.30
2022-10-19T08:48:25.170Z,2.20
2022-10-19T08:50:52.953Z,2.30
2022-10-19T08:53:54.299Z,2.20
2022-10-19T08:56:52.065Z,2.50
2022-10-19T08:59:38.197Z,2.00
2022-10-19T09:02:16.194Z,2.40
2022-10-19T09:04:54.587Z,2.43
2022-10-19T09:07:31.012Z,2.10
2022-10-19T09:10:06.703Z,2.30
2022-10-19T09:12:55.090Z,2.20
2022-10-19T09:15:46.350Z,2.30
2022-10-19T09:18:20.144Z,2.40
2022-10-19T09:20:55.807Z,2.28
2022-10-19T09:23:47.386Z,2.38
2022-10-19T09:26:18.547Z,2.58
2022-10-19T09:28:54.732Z,2.35
2022-10-19T09:31:40.967Z,2.23
2022-10-19T09:34:29.869Z,2.20
2022-10-19T09:36:58.987Z,2.22
2022-10-19T09:39:29.867Z,2.28
2022-10-19T09:42:22.954Z,2.53
2022-10-19T09:44:51.940Z,2.40
2022-10-19T09:47:47.729Z,2.10
2022-10-19T09:50:24.645Z,2.50
2022-10-19T09:53:02.565Z,2.60
2022-10-19T09:55:39.760Z,2.40
2022-10-19T09:58:17.959Z,2.27
2022-10-19T10:00:47.613Z,2.67
2022-10-19T10:03:39.299Z,2.58
2022-10-19T10:06:13.368Z,2.60
2022-10-19T10:08:47.002Z,2.20
2022-10-19T10:11:24.841Z,2.00
2022-10-19T10:13:54.239Z,2.15
2022-10-19T10:16:23.596Z,2.03
2022-10-19T10:18:59.601Z,1.98
2022-10-19T10:21:32.385Z,1.80
2022-10-19T10:24:12.926Z,1.50
2022-10-19T10:26:46.342Z,1.75
2022-10-19T10:29:20.262Z,1.70
2022-10-19T10:31:56.562Z,1.77
2022-10-19T10:34:53.968Z,1.65
2022-10-19T10:37:28.446Z,1.50
2022-10-19T10:40:00.316Z,1.70
2022-10-19T10:42:46.157Z,1.80
2022-10-19T10:45:32.679Z,1.60
2022-10-19T10:48:27.758Z,1.63
2022-10-19T10:50:55.456Z,1.60
2022-10-19T10:53:35.719Z,1.50
2022-10-19T10:56:04.677Z,1.50
2022-10-19T10:58:47.882Z,1.40
2022-10-19T11:01:23.881Z,1.30
2022-10-19T11:04:06.339Z,1.20
2022-10-19T11:06:37.660Z,1.40
2022-10-19T11:09:08.586Z,1.35
2022-10-19T11:11:39.506Z,1.15
2022-10-19T11:14:29.591Z,1.25
2022-10-19T11:17:00.441Z,1.10
2022-10-19T11:19:32.394Z,1.30
2022-10-19T11:22:08.073Z,1.30
2022-10-19T11:24:48.611Z,1.30
2022-10-19T11:27:32.231Z,1.40
2022-10-19T11:30:07.141Z,1.20
2022-10-19T11:32:52.108Z,1.15
2022-10-19T11:35:39.201Z,1.30
2022-10-19T11:38:28.731Z,1.40
2022-10-19T11:41:19.051Z,1.38
2022-10-19T11:44:11.163Z,1.40
2022-10-19T11:46:58.191Z,1.50
2022-10-19T11:49:37.563Z,1.35
2022-10-19T11:52:17.394Z,1.50
2022-10-19T11:54:44.211Z,1.50
2022-10-19T11:57:25.409Z,1.50
2022-10-19T12:00:37.525Z,1.75
2022-10-19T12:03:36.407Z,1.65
2022-10-19T12:06:47.544Z,1.50
2022-10-19T12:09:46.623Z,1.67
2022-10-19T12:12:31.761Z,1.60
2022-10-19T12:15:05.861Z,1.98
2022-10-19T12:17:37.049Z,1.92
2022-10-19T12:20:22.677Z,2.08
2022-10-19T12:22:50.521Z,2.08
2022-10-19T12:25:19.737Z,2.00
2022-10-19T12:27:49.101Z,2.10
2022-10-19T12:30:22.712Z,2.10
2022-10-19T12:33:03.383Z,2.00
2022-10-19T12:35:52.969Z,2.55
2022-10-19T12:38:27.739Z,2.03
2022-10-19T12:41:16.307Z,2.10
2022-10-19T12:44:01.747Z,2.30
2022-10-19T12:46:28.463Z,1.90
2022-10-19T12:49:38.938Z,2.50
2022-10-19T12:52:07.896Z,2.13
2022-10-19T12:54:37.917Z,2.28
2022-10-19T12:57:29.976Z,2.10
2022-10-19T13:00:23.038Z,1.90
2022-10-19T13:03:00.873Z,2.00
2022-10-19T13:05:30.323Z,2.23
2022-10-19T13:07:57.806Z,2.15
2022-10-19T13:10:27.573Z,1.80
2022-10-19T13:12:54.771Z,1.80
2022-10-19T13:15:36.873Z,1.73
2022-10-19T13:18:16.858Z,1.80
2022-10-19T13:20:53.227Z,1.85
2022-10-19T13:23:29.068Z,1.90
2022-10-19T13:26:32.850Z,1.60
2022-10-19T13:29:00.220Z,1.80
2022-10-19T13:31:31.528Z,1.70
2022-10-19T13:33:58.773Z,1.75
2022-10-19T13:36:25.772Z,1.88
2022-10-19T13:38:58.620Z,1.77
2022-10-19T13:41:27.545Z,1.80
2022-10-19T13:44:16.084Z,1.60
2022-10-19T13:46:54.043Z,1.80
2022-10-19T13:49:32.765Z,1.90
2022-10-19T13:52:08.748Z,2.15
2022-10-19T13:54:44.304Z,2.08
2022-10-19T13:57:17.856Z,1.80
2022-10-19T14:00:15.377Z,1.90
2022-10-19T14:03:09.359Z,1.80
2022-10-19T14:05:47.363Z,1.70
2022-10-19T14:08:20.200Z,1.95
2022-10-19T14:11:01.148Z,2.03
2022-10-19T14:13:29.186Z,1.67
2022-10-19T14:15:57.686Z,2.20
2022-10-19T14:18:28.987Z,2.05
2022-10-19T14:21:00.551Z,2.00
2022-10-19T14:23:32.662Z,1.80
2022-10-19T14:26:06.620Z,2.00
2022-10-19T14:28:34.048Z,1.90
2022-10-19T14:31:02.808Z,1.90
2022-10-19T14:33:35.973Z,1.80
2022-10-19T14:36:02.880Z,1.77
2022-10-19T14:38:36.632Z,1.98
2022-10-19T14:41:06.277Z,1.80
2022-10-19T14:43:34.698Z,1.70
2022-10-19T14:46:07.662Z,1.75
2022-10-19T14:48:36.147Z,2.00
2022-10-19T14:51:09.965Z,1.73
2022-10-19T14:53:48.506Z,1.80
2022-10-19T14:56:27.328Z,1.85
2022-10-19T14:58:59.269Z,1.88
2022-10-19T15:01:26.174Z,1.90
2022-10-19T15:03:53.291Z,1.80
2022-10-19T15:06:26.797Z,2.03
2022-10-19T15:09:04.198Z,1.70
2022-10-19T15:11:37.523Z,1.80
2022-10-19T15:14:12.058Z,1.80
2022-10-19T15:16:53.421Z,1.70
2022-10-19T15:19:41.038Z,1.90
2022-10-19T15:22:21.720Z,1.73
2022-10-19T15:25:07.163Z,1.70
2022-10-19T15:27:35.057Z,1.70
2022-10-19T15:30:06.278Z,1.55
2022-10-19T15:32:38.365Z,1.70
2022-10-19T15:35:12.866Z,1.73
2022-10-19T15:37:43.426Z,1.60
2022-10-19T15:40:24.214Z,1.50
2022-10-19T15:42:51.118Z,1.85
2022-10-19T15:45:36.376Z,1.85
2022-10-19T15:48:26.355Z,1.83
2022-10-19T15:50:54.668Z,1.80
2022-10-19T15:53:22.261Z,1.90
2022-10-19T15:55:49.114Z,1.60
2022-10-19T15:58:16.327Z,1.90
2022-10-19T16:00:44.856Z,1.77
2022-10-19T16:03:11.673Z,1.77
2022-10-19T16:05:38.619Z,1.77
2022-10-19T16:08:07.885Z,1.73
2022-10-19T16:10:37.046Z,1.95
2022-10-19T16:13:03.770Z,1.60
2022-10-19T16:15:30.548Z,1.70
2022-10-19T16:17:59.880Z,1.80
2022-10-19T16:20:28.534Z,2.00
2022-10-19T16:22:55.378Z,1.80
2022-10-19T16:25:22.365Z,1.80
2022-10-19T16:27:49.352Z,2.03
2022-10-19T16:30:16.313Z,1.87
2022-10-19T16:32:43.196Z,2.00
2022-10-19T16:35:10.272Z,2.30
2022-10-19T16:37:37.415Z,1.90
2022-10-19T16:40:05.243Z,2.00
2022-10-19T16:42:32.749Z,2.20
2022-10-19T16:44:59.643Z,1.90
2022-10-19T16:47:26.383Z,2.10
2022-10-19T16:49:59.935Z,2.00
2022-10-19T16:52:33.035Z,2.05
2022-10-19T16:55:00.473Z,2.17
2022-10-19T16:57:27.374Z,2.20
2022-10-19T16:59:54.418Z,2.10
2022-10-19T17:02:22.043Z,2.17
2022-10-19T17:04:48.872Z,2.13
2022-10-19T17:07:15.894Z,2.20
2022-10-19T17:09:43.265Z,2.45
2022-10-19T17:12:11.334Z,2.45
2022-10-19T17:14:40.327Z,2.53
2022-10-19T17:17:08.045Z,2.78
2022-10-19T17:19:36.847Z,2.90
2022-10-19T17:22:05.105Z,3.20
2022-10-19T17:24:32.285Z,3.60
2022-10-19T17:27:03.189Z,3.50
2022-10-19T17:29:30.108Z,3.65
2022-10-19T17:31:57.632Z,3.50
2022-10-19T17:34:24.428Z,3.67
2022-10-19T17:36:51.207Z,3.50
2022-10-19T17:39:25.784Z,3.63
2022-10-19T17:42:01.162Z,3.42
2022-10-19T17:44:30.425Z,3.60
2022-10-19T17:46:57.353Z,3.78
2022-10-19T17:49:24.344Z,4.00
2022-10-19T17:51:52.620Z,3.67
2022-10-19T17:54:19.511Z,3.80
2022-10-19T17:56:46.266Z,4.57
2022-10-19T17:59:13.782Z,4.30
2022-10-19T18:01:40.926Z,4.50
2022-10-19T18:04:07.806Z,4.18
2022-10-19T18:06:36.512Z,4.20
2022-10-19T18:09:06.092Z,3.90
2022-10-19T18:11:37.152Z,4.40
2022-10-19T18:14:05.705Z,3.90
2022-10-19T18:16:38.477Z,4.03
2022-10-19T18:19:06.245Z,3.80
2022-10-19T18:21:38.387Z,3.70
2022-10-19T18:24:07.451Z,4.07
2022-10-19T18:26:35.999Z,3.75
2022-10-19T18:29:13.254Z,3.80
2022-10-19T18:31:40.904Z,3.70
2022-10-19T18:34:12.272Z,3.80
2022-10-19T18:36:39.138Z,4.03
2022-10-19T18:39:07.448Z,3.80
2022-10-19T18:41:34.597Z,3.60
2022-10-19T18:44:04.999Z,4.20
2022-10-19T18:46:36.688Z,4.00
2022-10-19T18:49:05.638Z,3.75
2022-10-19T18:51:32.678Z,4.07
2022-10-19T18:53:59.420Z,3.70
2022-10-19T18:56:29.293Z,3.80
2022-10-19T18:58:56.936Z,3.90
2022-10-19T19:01:26.829Z,3.88
2022-10-19T19:03:56.295Z,4.03
2022-10-19T19:06:25.689Z,3.80
2022-10-19T19:08:57.016Z,3.70
2022-10-19T19:11:30.666Z,3.60
2022-10-19T19:14:06.212Z,4.03
2022-10-19T19:16:35.684Z,4.05
2022-10-19T19:19:03.080Z,4.10
2022-10-19T19:21:31.682Z,3.92
2022-10-19T19:24:04.312Z,4.00
2022-10-19T19:26:36.753Z,4.00
2022-10-19T19:29:04.455Z,3.97
2022-10-19T19:31:31.538Z,3.70
2022-10-19T19:34:00.925Z,4.00
2022-10-19T19:36:28.247Z,3.80
2022-10-19T19:38:59.073Z,4.90
2022-10-19T19:41:26.198Z,4.00
2022-10-19T19:43:53.093Z,3.90
2022-10-19T19:46:20.852Z,3.83
2022-10-19T19:48:48.914Z,4.00
2022-10-19T19:51:20.460Z,3.78
2022-10-19T19:53:48.174Z,3.75
2022-10-19T19:56:16.405Z,4.10
2022-10-19T19:58:44.702Z,4.05
2022-10-19T20:01:19.939Z,3.90
2022-10-19T20:03:47.681Z,3.90
2022-10-19T20:06:18.674Z,4.40
2022-10-19T20:08:47.680Z,3.65
2022-10-19T20:11:17.473Z,4.10
2022-10-19T20:13:45.648Z,3.70
2022-10-19T20:16:15.531Z,3.75
2022-10-19T20:18:45.190Z,3.88
2022-10-19T20:21:12.608Z,3.50
2022-10-19T20:23:39.372Z,3.83
2022-10-19T20:26:06.697Z,3.70
2022-10-19T20:28:33.688Z,3.63
2022-10-19T20:31:06.534Z,3.58
2022-10-19T20:33:35.710Z,3.75
2022-10-19T20:36:09.013Z,3.88
2022-10-19T20:38:38.486Z,3.80
2022-10-19T20:41:09.580Z,3.75
2022-10-19T20:43:37.507Z,3.92
2022-10-19T20:46:08.940Z,3.53
2022-10-19T20:48:35.746Z,3.95
2022-10-19T20:51:15.671Z,3.70
2022-10-19T20:53:46.233Z,3.50
2022-10-19T20:56:15.315Z,3.90
2022-10-19T20:58:43.603Z,3.65
2022-10-19T21:01:13.939Z,3.67
2022-10-19T21:03:49.116Z,3.73
2022-10-19T21:06:15.880Z,3.75
2022-10-19T21:08:42.997Z,3.90
2022-10-19T21:11:17.487Z,3.70
2022-10-19T21:13:44.958Z,3.65
2022-10-19T21:16:17.316Z,3.97
2022-10-19T21:18:45.578Z,3.60
2022-10-19T21:21:24.023Z,3.95
2022-10-19T21:23:55.345Z,3.67
2022-10-19T21:26:24.311Z,3.97
2022-10-19T21:28:54.362Z,3.93
2022-10-19T21:31:23.026Z,3.92
2022-10-19T21:33:50.791Z,4.13
2022-10-19T21:36:17.979Z,4.03
2022-10-19T21:38:45.566Z,3.85
2022-10-19T21:41:14.976Z,3.83
2022-10-19T21:43:42.057Z,3.97
2022-10-19T21:46:12.461Z,3.78
2022-10-19T21:48:39.775Z,3.90
2022-10-19T21:51:34.565Z,3.90
2022-10-19T21:54:02.305Z,4.23
2022-10-19T21:56:29.546Z,3.90
2022-10-19T21:58:56.751Z,4.00
2022-10-19T22:01:26.908Z,4.25
2022-10-19T22:04:02.195Z,4.18
2022-10-19T22:06:31.228Z,4.37
2022-10-19T22:08:58.424Z,4.13
2022-10-19T22:11:26.765Z,4.40
2022-10-19T22:13:58.229Z,3.72
2022-10-19T22:16:27.159Z,4.20
2022-10-19T22:18:54.914Z,4.20
2022-10-19T22:21:28.703Z,4.13
2022-10-19T22:24:05.407Z,4.10
2022-10-19T22:26:47.152Z,3.97
2022-10-19T22:29:14.631Z,4.18
2022-10-19T22:31:41.499Z,4.33
2022-10-19T22:34:12.202Z,4.20
2022-10-19T22:36:39.017Z,4.35
2022-10-19T22:39:06.713Z,4.05
2022-10-19T22:42:04.989Z,4.30
2022-10-19T22:44:32.468Z,4.50
2022-10-19T22:46:59.621Z,4.22
2022-10-19T22:49:26.358Z,4.40
2022-10-19T22:51:53.252Z,4.40
2022-10-19T22:54:20.000Z,4.38
2022-10-19T22:56:46.896Z,4.27
2022-10-19T22:59:13.725Z,4.25
2022-10-19T23:01:40.673Z,4.50
2022-10-19T23:04:07.665Z,4.40
2022-10-19T23:06:34.526Z,4.57
2022-10-19T23:09:01.453Z,4.23
2022-10-19T23:11:28.327Z,4.70
2022-10-19T23:13:55.156Z,4.30
2022-10-19T23:16:21.972Z,4.60
2022-10-19T23:18:48.772Z,4.88
2022-10-19T23:21:16.890Z,4.80
2022-10-19T23:23:43.856Z,4.43
2022-10-19T23:26:12.548Z,4.70
2022-10-19T23:28:41.126Z,4.43
2022-10-19T23:31:19.909Z,4.95
2022-10-19T23:33:47.326Z,4.70
2022-10-19T23:36:22.703Z,4.80
2022-10-19T23:38:51.310Z,5.10
2022-10-19T23:41:18.963Z,4.70
2022-10-19T23:43:46.149Z,4.93
2022-10-19T23:46:13.368Z,4.67
2022-10-19T23:48:41.653Z,5.10
2022-10-19T23:51:11.099Z,5.00
2022-10-19T23:53:41.436Z,5.55
2022-10-19T23:56:18.801Z,5.15
2022-10-19T23:58:46.392Z,5.30
